Time;durP1;ratioP1;P1;durP2;ratioP2;P2;SDS_P1;SDS_P2;PMS_P1;PMS_P2;Temp;Humidity;BMP_temperature;BMP_pressure;BME280_temperature;BME280_humidity;BME280_pressure;Samples;Min_cycle;Max_cycle;Signal;HPM_P1;HPM_P2
2022/04/13 00:02:08;;;;;;;13.35;7.03;;;12.90;1.00;;;;;;6189091;23;20016;-81
2022/04/13 00:04:34;;;;;;;14.13;7.18;;;12.80;1.00;;;;;;6188293;23;20033;-82
2022/04/13 00:07:00;;;;;;;13.82;7.15;;;12.70;1.00;;;;;;6188775;23;20284;-82
2022/04/13 00:09:25;;;;;;;13.30;6.80;;;12.60;1.00;;;;;;6188071;23;20084;-81
2022/04/13 00:11:54;;;;;;;14.52;7.20;;;12.60;1.00;;;;;;6163180;23;20375;-81
2022/04/13 00:14:22;;;;;;;14.35;7.28;;;12.50;1.00;;;;;;6194406;23;20028;-82
2022/04/13 00:16:50;;;;;;;13.32;6.38;;;12.50;3.80;;;;;;6191146;23;20120;-81
2022/04/13 00:19:16;;;;;;;16.08;6.35;;;12.40;7.70;;;;;;6191344;23;20021;-82
2022/04/13 00:21:42;;;;;;;13.52;6.38;;;12.30;10.70;;;;;;6187331;23;20021;-83
2022/04/13 00:24:08;;;;;;;12.13;6.05;;;12.30;14.40;;;;;;6187481;23;20028;-82
2022/04/13 00:26:33;;;;;;;14.63;6.85;;;12.20;18.00;;;;;;6185395;23;20021;-81
2022/04/13 00:28:59;;;;;;;15.55;6.95;;;12.30;18.80;;;;;;6179724;23;20120;-82
2022/04/13 00:31:25;;;;;;;18.45;7.60;;;12.10;22.80;;;;;;6154714;23;20017;-83
2022/04/13 00:33:50;;;;;;;15.18;6.50;;;12.10;23.50;;;;;;6180346;23;20013;-83
2022/04/13 00:36:16;;;;;;;14.52;7.93;;;12.10;26.60;;;;;;6152433;23;20009;-83
2022/04/13 00:38:42;;;;;;;14.43;7.70;;;12.10;32.10;;;;;;6184537;23;20010;-83
2022/04/13 00:41:08;;;;;;;19.20;8.70;;;12.10;45.80;;;;;;6184142;23;20336;-84
2022/04/13 00:43:33;;;;;;;14.07;8.13;;;12.10;49.70;;;;;;6184466;23;20021;-83
2022/04/13 00:45:59;;;;;;;19.20;9.23;;;12.20;43.30;;;;;;6184734;23;20024;-83
2022/04/13 00:48:39;;;;;;;15.50;8.85;;;12.20;48.30;;;;;;6154043;23;20017;-83
2022/04/13 00:51:07;;;;;;;20.60;9.57;;;12.30;61.10;;;;;;6178994;23;20021;-83
2022/04/13 00:53:34;;;;;;;;;;;12.00;52.30;;;;;;6179791;23;20116;-83
2022/04/13 00:56:02;;;;;;;15.90;8.85;;;12.40;53.60;;;;;;6178008;23;19958;-83
2022/04/13 00:58:29;;;;;;;21.30;9.15;;;12.50;40.40;;;;;;6176930;23;20419;-82
2022/04/13 01:00:55;;;;;;;21.45;9.40;;;12.50;51.20;;;;;;6176895;23;20025;-83
2022/04/13 01:03:24;;;;;;;16.80;9.30;;;12.60;44.00;;;;;;6178143;23;20021;-83
2022/04/13 01:05:51;;;;;;;25.95;9.43;;;12.50;47.50;;;;;;6178411;23;20088;-83
2022/04/13 01:08:18;;;;;;;19.83;10.18;;;12.50;46.40;;;;;;6178517;23;20020;-83
2022/04/13 01:10:46;;;;;;;20.10;9.00;;;12.50;59.40;;;;;;6178212;23;20127;-83
2022/04/13 01:13:13;;;;;;;;;;;12.50;39.80;;;;;;6152893;23;20435;-83
2022/04/13 01:15:39;;;;;;;18.30;10.00;;;12.60;37.00;;;;;;6178966;23;20382;-83
2022/04/13 01:18:06;;;;;;;16.52;9.25;;;12.50;39.90;;;;;;6177071;23;20102;-83
2022/04/13 01:20:31;;;;;;;17.13;9.23;;;12.50;41.10;;;;;;6180431;23;20021;-83
2022/04/13 01:22:57;;;;;;;20.83;9.73;;;12.40;29.70;;;;;;6182602;23;20021;-83
2022/04/13 01:25:23;;;;;;;21.95;9.73;;;12.50;49.60;;;;;;6182921;23;20139;-83
2022/04/13 01:27:49;;;;;;;20.90;10.38;;;12.40;38.10;;;;;;6182763;23;20075;-83
2022/04/13 01:30:14;;;;;;;17.48;10.15;;;12.40;60.00;;;;;;6183369;23;20094;-82
2022/04/13 01:32:40;;;;;;;20.63;10.00;;;12.40;45.10;;;;;;6183438;23;20024;-83
2022/04/13 01:35:07;;;;;;;15.40;9.90;;;12.40;37.80;;;;;;6156177;23;20107;-83
2022/04/13 01:37:34;;;;;;;19.10;9.15;;;12.40;62.90;;;;;;6183883;23;20443;-83
2022/04/13 01:40:00;;;;;;;17.77;9.48;;;12.40;66.80;;;;;;6154616;23;20071;-83
2022/04/13 01:42:26;;;;;;;16.75;8.85;;;12.40;48.70;;;;;;6157288;23;20027;-83
2022/04/13 01:44:51;;;;;;;15.18;8.90;;;12.30;45.80;;;;;;6106641;23;20095;-84
2022/04/13 01:47:17;;;;;;;23.08;9.88;;;12.30;43.90;;;;;;6151886;23;20016;-84
2022/04/13 01:49:43;;;;;;;19.88;9.90;;;12.30;44.20;;;;;;6176933;23;20072;-84
2022/04/13 01:52:11;;;;;;;16.65;9.57;;;12.10;67.80;;;;;;6178414;23;20028;-83
2022/04/13 01:54:36;;;;;;;16.88;9.68;;;12.10;65.40;;;;;;6178722;23;20044;-83
2022/04/13 01:57:02;;;;;;;24.80;10.75;;;12.10;91.00;;;;;;6151109;23;20440;-84
2022/04/13 01:59:29;;;;;;;21.55;10.93;;;12.10;80.70;;;;;;6178283;23;20021;-84
2022/04/13 02:01:55;;;;;;;24.23;10.45;;;12.20;77.80;;;;;;6180346;23;20377;-82
2022/04/13 02:04:23;;;;;;;19.02;10.30;;;12.10;72.80;;;;;;6176675;23;20433;-83
2022/04/13 02:06:50;;;;;;;20.70;10.73;;;12.30;67.10;;;;;;6181819;23;20029;-82
2022/04/13 02:09:19;;;;;;;16.77;10.70;;;12.00;63.70;;;;;;6127198;23;20013;-82
2022/04/13 02:11:46;;;;;;;19.05;10.15;;;11.90;62.90;;;;;;6178167;23;20071;-82
2022/04/13 02:14:12;;;;;;;23.58;11.38;;;12.00;63.70;;;;;;6179702;23;20024;-82
2022/04/13 02:16:38;;;;;;;17.88;10.75;;;11.80;70.00;;;;;;6180782;23;20628;-83
2022/04/13 02:19:07;;;;;;;22.80;10.73;;;11.80;73.20;;;;;;6176639;23;20052;-83
2022/04/13 02:21:33;;;;;;;25.00;11.20;;;11.80;83.20;;;;;;6181847;23;20021;-83
2022/04/13 02:23:59;;;;;;;22.25;10.95;;;11.80;83.20;;;;;;6177686;23;20418;-83
2022/04/13 02:26:24;;;;;;;21.83;11.32;;;11.70;90.00;;;;;;6177255;23;20049;-83
2022/04/13 02:28:51;;;;;;;19.27;10.45;;;11.70;93.10;;;;;;6150781;23;20383;-82
2022/04/13 02:31:17;;;;;;;17.05;9.80;;;11.70;87.10;;;;;;6179506;23;20056;-82
2022/04/13 02:33:43;;;;;;;19.77;10.90;;;11.70;83.50;;;;;;6178794;23;20076;-82
2022/04/13 02:36:09;;;;;;;18.88;11.05;;;11.70;82.80;;;;;;6176974;23;20025;-83
2022/04/13 02:38:34;;;;;;;23.58;11.25;;;11.70;86.40;;;;;;6177772;23;20021;-82
2022/04/13 02:41:00;;;;;;;17.90;10.23;;;11.60;88.20;;;;;;6177642;23;20297;-83
2022/04/13 02:43:28;;;;;;;16.50;10.10;;;11.60;88.10;;;;;;6177158;23;20028;-82
2022/04/13 02:45:54;;;;;;;19.73;10.38;;;11.50;89.50;;;;;;6179136;23;20452;-81
2022/04/13 02:48:20;;;;;;;19.38;10.48;;;11.60;90.50;;;;;;6181022;23;20017;-82
2022/04/13 02:50:48;;;;;;;21.75;11.65;;;11.50;90.80;;;;;;6180120;23;20021;-82
2022/04/13 02:53:14;;;;;;;23.67;12.18;;;11.50;92.20;;;;;;6176731;23;20073;-83
2022/04/13 02:55:40;;;;;;;19.33;10.43;;;12.10;93.00;;;;;;6179072;23;20075;-83
2022/04/13 02:58:06;;;;;;;19.00;11.25;;;11.40;93.50;;;;;;6174967;23;20100;-82
2022/04/13 03:00:32;;;;;;;22.77;11.63;;;11.40;94.40;;;;;;6177365;23;20332;-82
2022/04/13 03:02:57;;;;;;;21.65;12.02;;;11.30;98.50;;;;;;6179035;23;20016;-82
2022/04/13 03:05:23;;;;;;;23.10;11.75;;;11.40;99.90;;;;;;6177625;23;20017;-82
2022/04/13 03:07:49;;;;;;;22.73;12.57;;;11.30;99.90;;;;;;6177911;23;20076;-82
2022/04/13 03:10:14;;;;;;;23.23;12.55;;;11.40;99.90;;;;;;6177869;23;20096;-82
2022/04/13 03:12:42;;;;;;;24.70;12.93;;;11.40;99.90;;;;;;6152237;23;20045;-82
2022/04/13 03:15:09;;;;;;;27.02;13.82;;;11.60;99.90;;;;;;6178487;23;20021;-83
2022/04/13 03:17:35;;;;;;;27.00;12.75;;;11.50;99.90;;;;;;6178416;23;20025;-83
2022/04/13 03:20:01;;;;;;;23.27;11.70;;;11.50;99.90;;;;;;6150560;23;20028;-83
2022/04/13 03:22:27;;;;;;;27.42;12.70;;;10.70;99.90;;;;;;6180046;23;20060;-83
2022/04/13 03:24:53;;;;;;;21.83;11.85;;;11.60;99.90;;;;;;6177753;23;20052;-82
2022/04/13 03:27:19;;;;;;;24.02;12.60;;;11.60;99.90;;;;;;6153595;23;20091;-82
2022/04/13 03:29:45;;;;;;;24.00;12.13;;;11.60;99.90;;;;;;6156346;23;20101;-83
2022/04/13 03:32:11;;;;;;;20.85;11.68;;;11.60;99.90;;;;;;6181306;23;20017;-82
2022/04/13 03:34:37;;;;;;;23.73;12.48;;;11.60;99.90;;;;;;6177286;23;20076;-82
2022/04/13 03:37:03;;;;;;;18.13;11.52;;;11.60;99.90;;;;;;6154106;23;20017;-82
2022/04/13 03:39:29;;;;;;;21.83;12.07;;;11.50;99.90;;;;;;6176703;23;20505;-83
2022/04/13 03:41:56;;;;;;;28.95;11.77;;;11.50;99.90;;;;;;6178404;23;20075;-82
2022/04/13 03:44:21;;;;;;;20.33;11.52;;;11.40;99.90;;;;;;6178444;23;20029;-82
2022/04/13 03:46:47;;;;;;;19.95;11.13;;;11.40;99.90;;;;;;6153612;23;20032;-82
2022/04/13 03:49:14;;;;;;;21.35;12.13;;;11.40;99.90;;;;;;6178541;23;20028;-82
2022/04/13 03:51:40;;;;;;;21.95;12.07;;;11.30;99.90;;;;;;6179101;23;20150;-83
2022/04/13 03:54:06;;;;;;;22.85;11.98;;;11.30;99.90;;;;;;6178673;23;20021;-83
2022/04/13 03:56:33;;;;;;;22.55;12.23;;;11.20;99.90;;;;;;6153124;23;20052;-82
2022/04/13 03:58:59;;;;;;;25.67;14.00;;;11.20;99.90;;;;;;6180969;23;20494;-82
2022/04/13 04:01:25;;;;;;;24.23;14.23;;;11.20;99.90;;;;;;6152953;23;20174;-83
2022/04/13 04:03:51;;;;;;;29.13;14.88;;;11.20;99.90;;;;;;6178628;23;20081;-82
2022/04/13 04:06:17;;;;;;;31.60;14.32;;;11.30;99.90;;;;;;6180918;23;20105;-82
2022/04/13 04:08:43;;;;;;;31.40;14.57;;;11.30;99.90;;;;;;6182574;23;20034;-82
2022/04/13 04:11:09;;;;;;;33.85;15.05;;;11.40;99.90;;;;;;6156632;23;20163;-83
2022/04/13 04:13:34;;;;;;;22.90;13.38;;;11.40;99.90;;;;;;6182845;23;20023;-82
2022/04/13 04:16:00;;;;;;;27.88;15.52;;;11.50;99.90;;;;;;6181782;23;20094;-82
2022/04/13 04:18:26;;;;;;;27.23;14.68;;;11.50;99.90;;;;;;6181225;23;20028;-82
2022/04/13 04:20:52;;;;;;;26.02;15.38;;;11.50;99.90;;;;;;6183221;23;20024;-82
2022/04/13 04:23:19;;;;;;;28.23;15.50;;;11.50;99.90;;;;;;6183288;23;20052;-82
2022/04/13 04:25:44;;;;;;;27.67;14.32;;;12.30;99.90;;;;;;6183150;23;20352;-82
2022/04/13 04:28:10;;;;;;;29.60;15.68;;;12.20;99.90;;;;;;6182713;23;20021;-82
2022/04/13 04:30:40;;;;;;;23.58;12.90;;;11.60;99.90;;;;;;6182457;23;20448;-81
2022/04/13 04:33:06;;;;;;;23.90;12.95;;;11.50;99.90;;;;;;6182959;23;20029;-82
2022/04/13 04:35:35;;;;;;;24.63;13.73;;;11.50;99.90;;;;;;6183808;23;20158;-82
2022/04/13 04:38:02;;;;;;;27.35;12.98;;;11.50;99.90;;;;;;6183554;23;20021;-83
2022/04/13 04:40:28;;;;;;;26.47;13.70;;;11.50;99.90;;;;;;6182481;23;20021;-83
2022/04/13 04:42:54;;;;;;;31.52;13.50;;;11.40;99.90;;;;;;6183645;23;20380;-83
2022/04/13 04:45:21;;;;;;;30.13;11.80;;;11.40;99.90;;;;;;6182936;23;20025;-82
2022/04/13 04:47:48;;;;;;;33.72;14.52;;;11.40;99.90;;;;;;6183409;23;20043;-82
2022/04/13 04:50:14;;;;;;;25.45;12.73;;;12.30;99.90;;;;;;6182853;23;20459;-83
2022/04/13 04:52:44;;;;;;;23.27;12.43;;;11.40;99.90;;;;;;6183424;23;20017;-83
2022/04/13 04:55:12;;;;;;;25.58;14.02;;;11.30;99.90;;;;;;6154259;23;20021;-83
2022/04/13 04:57:39;;;;;;;32.17;15.43;;;11.30;99.90;;;;;;6182342;23;20419;-83
2022/04/13 05:00:07;;;;;;;28.98;15.60;;;11.30;99.90;;;;;;6182443;23;20017;-83
2022/04/13 05:02:32;;;;;;;29.35;15.70;;;11.40;99.90;;;;;;6180672;23;20013;-84
2022/04/13 05:04:58;;;;;;;27.02;15.57;;;11.40;99.90;;;;;;6181694;23;20040;-83
2022/04/13 05:07:24;;;;;;;31.50;12.32;;;11.50;99.90;;;;;;6182171;23;20056;-83
2022/04/13 05:09:49;;;;;;;32.88;16.20;;;11.50;99.90;;;;;;6183558;23;20036;-82
2022/04/13 05:12:15;;;;;;;30.98;16.13;;;11.50;99.90;;;;;;6182987;23;20028;-83
2022/04/13 05:14:41;;;;;;;25.20;15.68;;;11.60;99.90;;;;;;6182767;23;20452;-83
2022/04/13 05:17:06;;;;;;;31.95;17.23;;;11.60;99.90;;;;;;6181976;23;20021;-83
2022/04/13 05:19:34;;;;;;;30.08;16.98;;;11.70;99.90;;;;;;6154061;23;20046;-82
2022/04/13 05:21:59;;;;;;;28.67;16.15;;;11.70;99.90;;;;;;6182052;23;20021;-83
2022/04/13 05:24:25;;;;;;;31.70;16.48;;;11.80;99.90;;;;;;6181819;23;20023;-83
2022/04/13 05:26:51;;;;;;;32.28;16.80;;;11.90;99.90;;;;;;6183018;23;20069;-82
2022/04/13 05:29:17;;;;;;;25.83;16.83;;;11.90;99.90;;;;;;6182428;23;20017;-83
2022/04/13 05:31:42;;;;;;;28.73;17.20;;;12.00;99.90;;;;;;6182939;23;20019;-83
2022/04/13 05:34:08;;;;;;;31.20;18.48;;;12.00;99.90;;;;;;6182339;23;20088;-83
2022/04/13 05:36:34;;;;;;;34.03;17.95;;;12.00;99.90;;;;;;6182903;23;20021;-82
2022/04/13 05:39:00;;;;;;;30.38;17.85;;;12.00;99.90;;;;;;6182938;23;20017;-83
2022/04/13 05:41:26;;;;;;;33.83;18.10;;;12.00;99.90;;;;;;6182752;23;20043;-83
2022/04/13 05:43:51;;;;;;;36.17;17.75;;;11.90;99.90;;;;;;6183074;23;20024;-83
2022/04/13 05:46:17;;;;;;;32.25;18.55;;;11.90;99.90;;;;;;6182645;23;20024;-83
2022/04/13 05:48:43;;;;;;;33.08;18.00;;;11.90;99.90;;;;;;6181862;23;20016;-83
2022/04/13 05:51:09;;;;;;;35.03;18.85;;;12.30;99.90;;;;;;6182641;23;20017;-83
2022/04/13 05:53:35;;;;;;;31.67;18.17;;;11.90;99.90;;;;;;6182129;23;20031;-83
2022/04/13 05:56:01;;;;;;;31.40;17.25;;;11.80;99.90;;;;;;6183111;23;20432;-83
2022/04/13 05:58:28;;;;;;;34.80;20.75;;;11.90;99.90;;;;;;6182161;23;20055;-83
2022/04/13 06:00:54;;;;;;;42.25;20.48;;;11.90;99.90;;;;;;6182819;23;20096;-82
2022/04/13 06:03:22;;;;;;;30.77;18.33;;;11.90;99.90;;;;;;6181914;23;20016;-83
2022/04/13 06:05:48;;;;;;;32.35;19.42;;;11.90;99.90;;;;;;6182487;23;20019;-83
2022/04/13 06:08:14;;;;;;;35.50;19.58;;;12.00;99.90;;;;;;6156001;23;20095;-83
2022/04/13 06:10:40;;;;;;;35.13;19.17;;;12.00;99.90;;;;;;6182153;23;20017;-83
2022/04/13 06:13:06;;;;;;;33.75;18.98;;;12.10;99.90;;;;;;6156305;23;20038;-83
2022/04/13 06:15:31;;;;;;;30.15;17.55;;;12.10;99.90;;;;;;6182014;23;20021;-83
2022/04/13 06:17:58;;;;;;;33.92;20.70;;;12.20;99.90;;;;;;6182038;23;20117;-83
2022/04/13 06:20:24;;;;;;;24.63;16.92;;;12.30;99.90;;;;;;6181621;23;20048;-83
2022/04/13 06:22:50;;;;;;;37.17;23.48;;;12.50;99.90;;;;;;6182364;23;20432;-83
2022/04/13 06:25:15;;;;;;;41.28;20.63;;;12.60;99.90;;;;;;6182416;23;20153;-83
2022/04/13 06:27:41;;;;;;;35.70;20.42;;;12.80;99.90;;;;;;6182002;23;20027;-83
2022/04/13 06:30:08;;;;;;;34.53;20.13;;;12.90;99.90;;;;;;6182599;23;20059;-84
2022/04/13 06:32:37;;;;;;;39.70;19.92;;;13.10;99.90;;;;;;6155090;23;20092;-84
2022/04/13 06:35:04;;;;;;;31.60;18.45;;;13.10;99.90;;;;;;6155706;23;20333;-83
2022/04/13 06:37:30;;;;;;;33.80;19.85;;;13.30;99.90;;;;;;6182222;23;20055;-83
2022/04/13 06:39:56;;;;;;;37.92;20.90;;;13.30;99.90;;;;;;6182568;23;20017;-83
2022/04/13 06:42:23;;;;;;;38.83;20.10;;;13.40;99.90;;;;;;6182153;23;20029;-84
2022/04/13 06:44:52;;;;;;;33.85;18.70;;;13.40;99.90;;;;;;6182485;23;20017;-83
2022/04/13 06:47:20;;;;;;;40.13;19.52;;;13.60;99.90;;;;;;6179636;23;20444;-85
2022/04/13 06:49:47;;;;;;;28.17;17.17;;;13.70;99.90;;;;;;6179850;23;20089;-83
2022/04/13 06:52:13;;;;;;;34.97;19.88;;;13.70;99.90;;;;;;6182169;23;20159;-84
2022/04/13 06:54:39;;;;;;;33.40;18.90;;;13.80;99.90;;;;;;6181593;23;20020;-84
2022/04/13 06:57:05;;;;;;;33.05;17.15;;;14.00;99.90;;;;;;6155924;23;20531;-84
2022/04/13 06:59:31;;;;;;;37.63;18.90;;;14.10;99.90;;;;;;6179905;23;20013;-83
2022/04/13 07:01:56;;;;;;;35.05;19.63;;;14.10;99.90;;;;;;6181954;23;20399;-83
2022/04/13 07:04:22;;;;;;;35.33;17.90;;;14.10;99.90;;;;;;6178874;23;20060;-83
2022/04/13 07:06:48;;;;;;;27.05;17.80;;;14.10;99.90;;;;;;6131027;23;20025;-83
2022/04/13 07:09:13;;;;;;;30.23;18.02;;;14.00;99.90;;;;;;6182482;23;20017;-83
2022/04/13 07:11:39;;;;;;;29.98;17.27;;;14.20;99.90;;;;;;6181546;23;20031;-83
2022/04/13 07:14:05;;;;;;;31.05;18.55;;;14.20;99.90;;;;;;6182230;23;20387;-84
2022/04/13 07:16:31;;;;;;;37.38;25.90;;;14.40;99.90;;;;;;6181781;23;20462;-83
2022/04/13 07:18:57;;;;;;;105.88;81.97;;;14.50;99.00;;;;;;6156133;23;20021;-82
2022/04/13 07:21:24;;;;;;;28.92;17.40;;;14.40;92.60;;;;;;6183056;23;20025;-86
2022/04/13 07:23:49;;;;;;;27.65;19.35;;;14.50;93.60;;;;;;6184373;23;20078;-83
2022/04/13 07:26:15;;;;;;;25.67;18.25;;;14.60;95.70;;;;;;6183814;23;20100;-84
2022/04/13 07:28:41;;;;;;;31.20;17.08;;;14.70;89.90;;;;;;6157148;23;20025;-84
2022/04/13 07:31:07;;;;;;;28.63;18.27;;;14.80;91.80;;;;;;6157287;23;20017;-84
2022/04/13 07:33:33;;;;;;;31.75;16.95;;;15.20;71.30;;;;;;6183103;23;20052;-84
2022/04/13 07:35:59;;;;;;;29.55;15.85;;;15.50;61.60;;;;;;6183490;23;20017;-83
2022/04/13 07:38:25;;;;;;;27.88;18.20;;;15.60;34.00;;;;;;6182854;23;20162;-85
2022/04/13 07:40:50;;;;;;;31.35;22.17;;;15.50;48.40;;;;;;6184184;23;20107;-83
2022/04/13 07:43:16;;;;;;;24.02;14.82;;;15.50;41.30;;;;;;6157230;23;20094;-83
2022/04/13 07:45:43;;;;;;;28.25;16.05;;;15.30;46.50;;;;;;6183303;23;20087;-83
2022/04/13 07:48:09;;;;;;;36.85;29.05;;;15.10;60.20;;;;;;6182946;23;20021;-83
2022/04/13 07:50:35;;;;;;;22.75;17.02;;;15.00;68.70;;;;;;6182365;23;20028;-84
2022/04/13 07:53:01;;;;;;;28.95;15.55;;;14.90;76.10;;;;;;6183847;23;20020;-83
2022/04/13 07:55:27;;;;;;;23.42;17.27;;;14.90;78.00;;;;;;6182672;23;20025;-84
2022/04/13 07:57:52;;;;;;;24.25;15.05;;;15.10;78.40;;;;;;6183851;23;20413;-83
2022/04/13 08:00:19;;;;;;;27.10;15.80;;;15.10;82.90;;;;;;6157369;23;20150;-84
2022/04/13 08:02:44;;;;;;;28.20;16.67;;;15.00;87.40;;;;;;6182954;23;20075;-83
2022/04/13 08:05:12;;;;;;;28.73;16.50;;;15.00;80.50;;;;;;6183278;23;20395;-83
2022/04/13 08:07:39;;;;;;;25.75;21.48;;;15.30;85.50;;;;;;6183205;23;20091;-84
2022/04/13 08:10:06;;;;;;;26.42;21.52;;;15.40;66.20;;;;;;6183794;23;20016;-84
2022/04/13 08:12:32;;;;;;;23.85;18.52;;;15.40;54.40;;;;;;6183184;23;20056;-84
2022/04/13 08:14:58;;;;;;;24.10;15.07;;;15.20;55.40;;;;;;6183853;23;20039;-83
2022/04/13 08:17:25;;;;;;;27.38;13.88;;;15.40;54.00;;;;;;6183139;23;20063;-84
2022/04/13 08:19:52;;;;;;;23.30;13.73;;;15.60;40.60;;;;;;6182212;23;20452;-84
2022/04/13 08:22:27;;;;;;;26.55;14.85;;;15.80;39.80;;;;;;6156780;23;20021;-84
2022/04/13 08:24:52;;;;;;;25.55;14.82;;;16.00;34.30;;;;;;6183759;23;20013;-83
2022/04/13 08:27:19;;;;;;;24.02;14.88;;;16.30;20.80;;;;;;6183871;23;20056;-83
2022/04/13 08:29:48;;;;;;;19.65;13.63;;;16.40;20.80;;;;;;6182657;23;20013;-83
2022/04/13 08:32:20;;;;;;;24.73;14.63;;;16.70;4.30;;;;;;6159086;23;20018;-82
2022/04/13 08:34:48;;;;;;;23.23;14.20;;;16.40;1.00;;;;;;6162712;23;20428;-82
2022/04/13 08:37:13;;;;;;;20.95;15.00;;;16.70;1.00;;;;;;6194321;23;20036;-83
2022/04/13 08:39:39;;;;;;;19.40;13.85;;;16.80;1.00;;;;;;6197992;23;20013;-83
2022/04/13 08:42:13;;;;;;;25.23;19.98;;;17.20;1.00;;;;;;6198683;23;20028;-84
2022/04/13 08:44:42;;;;;;;38.97;35.08;;;17.70;1.00;;;;;;6198440;23;20024;-83
2022/04/13 08:47:12;;;;;;;31.33;28.08;;;18.40;1.00;;;;;;6175602;23;20031;-83
2022/04/13 08:49:40;;;;;;;41.88;38.08;;;18.70;1.00;;;;;;6145704;23;20068;-82
2022/04/13 08:52:07;;;;;;;;;;;19.30;1.00;;;;;;6188591;23;20100;-83
2022/04/13 08:54:53;;;;;;;95.03;88.07;;;19.40;1.00;;;;;;6158473;23;20188;-82
2022/04/13 08:57:21;;;;;;;132.77;124.75;;;20.70;1.00;;;;;;6187284;23;20019;-83
2022/04/13 09:00:07;;;;;;;153.05;143.57;;;21.60;1.00;;;;;;6184255;23;20114;-83
2022/04/13 09:02:47;;;;;;;107.88;100.80;;;22.00;1.00;;;;;;6183780;23;20096;-84
2022/04/13 09:05:19;;;;;;;99.93;93.75;;;21.50;1.00;;;;;;6182635;23;20028;-83
2022/04/13 09:07:53;;;;;;;114.15;106.45;;;21.00;1.00;;;;;;6183973;23;20021;-83
2022/04/13 09:10:23;;;;;;;109.10;102.30;;;20.30;1.00;;;;;;6184187;23;20013;-83
2022/04/13 09:12:50;;;;;;;161.23;151.55;;;20.70;1.00;;;;;;6156962;23;20024;-84
2022/04/13 09:15:16;;;;;;;86.68;80.68;;;21.00;1.00;;;;;;6157600;23;20103;-83
2022/04/13 09:17:42;;;;;;;85.53;79.93;;;22.00;1.00;;;;;;6182867;23;20017;-85
2022/04/13 09:20:09;;;;;;;24.27;22.20;;;22.30;1.00;;;;;;6182816;23;20532;-83
2022/04/13 09:22:36;;;;;;;17.90;9.45;;;22.50;1.00;;;;;;6183365;23;20353;-84
2022/04/13 09:25:04;;;;;;;18.27;9.83;;;23.10;1.00;;;;;;6184942;23;20024;-84
2022/04/13 09:27:31;;;;;;;15.85;11.05;;;23.50;1.00;;;;;;6183824;23;20017;-83
2022/04/13 09:29:57;;;;;;;13.75;10.77;;;24.70;1.00;;;;;;6183932;23;20026;-83
2022/04/13 09:32:23;;;;;;;18.17;16.33;;;25.30;1.00;;;;;;6184051;23;20470;-83
2022/04/13 09:34:51;;;;;;;24.45;22.48;;;26.00;1.00;;;;;;6182527;23;20396;-83
2022/04/13 09:37:18;;;;;;;23.55;21.25;;;26.50;1.00;;;;;;6157209;23;20065;-83
2022/04/13 09:39:46;;;;;;;16.40;14.70;;;25.70;1.00;;;;;;6182035;23;20025;-83
2022/04/13 09:42:15;;;;;;;14.07;10.60;;;25.60;1.00;;;;;;6182830;23;20160;-83
2022/04/13 09:44:41;;;;;;;15.88;10.73;;;25.70;1.00;;;;;;6182075;23;20439;-83
2022/04/13 09:47:08;;;;;;;16.27;11.90;;;25.40;1.00;;;;;;6131799;23;20443;-83
2022/04/13 09:49:34;;;;;;;16.83;12.48;;;25.10;1.00;;;;;;6181727;23;20083;-83
2022/04/13 09:52:00;;;;;;;14.38;10.60;;;25.70;1.00;;;;;;6182889;23;20018;-83
2022/04/13 09:54:27;;;;;;;20.00;17.02;;;26.00;1.00;;;;;;6156064;23;20033;-83
2022/04/13 09:56:53;;;;;;;15.50;11.38;;;25.70;1.00;;;;;;6182044;23;20302;-84
2022/04/13 09:59:29;;;;;;;12.85;8.20;;;26.60;1.00;;;;;;6182511;23;20310;-83
2022/04/13 10:01:56;;;;;;;14.80;12.82;;;27.40;1.00;;;;;;6182546;23;20067;-83
2022/04/13 10:04:31;;;;;;;33.33;30.07;;;27.40;1.00;;;;;;6182031;23;20036;-82
2022/04/13 10:07:17;;;;;;;20.48;18.55;;;27.50;1.00;;;;;;6182075;23;20021;-83
2022/04/13 10:09:43;;;;;;;28.75;26.00;;;28.00;1.00;;;;;;6182217;23;20017;-83
2022/04/13 10:12:09;;;;;;;87.55;79.30;;;28.10;1.00;;;;;;6180741;23;20120;-83
2022/04/13 10:14:35;;;;;;;67.78;62.50;;;27.40;99.90;;;;;;6180534;23;20020;-86
2022/04/13 10:17:08;;;;;;;40.10;36.80;;;26.70;99.90;;;;;;6182284;23;20281;-85
2022/04/13 10:19:35;;;;;;;76.88;71.13;;;27.90;99.90;;;;;;6181270;23;20027;-83
2022/04/13 10:22:01;;;;;;;54.97;50.83;;;26.90;99.90;;;;;;6182104;23;20067;-84
2022/04/13 10:24:31;;;;;;;134.60;123.57;;;26.40;99.90;;;;;;6182393;23;20420;-82
2022/04/13 10:27:00;;;;;;;62.28;57.88;;;25.90;99.90;;;;;;6181924;23;20036;-82
2022/04/13 10:29:27;;;;;;;219.10;198.93;;;26.40;99.90;;;;;;6182464;23;20021;-83
2022/04/13 10:32:17;;;;;;;162.02;146.93;;;25.80;99.90;;;;;;6182623;23;20096;-84
2022/04/13 10:34:52;;;;;;;70.43;64.97;;;24.40;99.90;;;;;;6180227;23;20021;-84
2022/04/13 10:37:20;;;;;;;67.60;62.78;;;25.80;99.90;;;;;;6182156;23;20025;-83
2022/04/13 10:39:47;;;;;;;144.98;126.13;;;26.70;99.90;;;;;;6154526;23;20367;-83
2022/04/13 10:42:15;;;;;;;181.05;167.00;;;27.10;99.90;;;;;;6131663;23;20029;-84
2022/04/13 10:44:52;;;;;;;121.15;111.43;;;26.90;99.90;;;;;;6181523;23;20305;-84
2022/04/13 10:47:24;;;;;;;79.38;73.32;;;27.40;99.90;;;;;;6182260;23;20320;-84
2022/04/13 10:49:56;;;;;;;102.95;95.95;;;27.90;99.90;;;;;;6179425;23;20013;-84
2022/04/13 10:52:31;;;;;;;137.75;127.57;;;28.10;99.90;;;;;;6181248;23;20412;-84
2022/04/13 10:55:07;;;;;;;171.73;158.88;;;28.30;99.90;;;;;;6152713;23;20024;-84
2022/04/13 10:57:39;;;;;;;153.15;143.15;;;28.40;99.90;;;;;;6184034;23;20101;-83
2022/04/13 11:00:06;;;;;;;273.52;256.42;;;28.50;99.90;;;;;;6183888;23;20092;-83
2022/04/13 11:02:54;;;;;;;368.17;337.83;;;28.40;99.90;;;;;;6182152;23;20096;-84
2022/04/13 11:05:25;;;;;;;550.22;509.05;;;26.50;99.90;;;;;;6182523;23;20487;-83
2022/04/13 11:08:16;;;;;;;341.83;321.25;;;27.90;99.90;;;;;;6183603;23;20017;-83
2022/04/13 11:10:47;;;;;;;356.50;335.38;;;27.90;99.90;;;;;;6157512;23;20103;-83
2022/04/13 11:13:14;;;;;;;384.45;360.50;;;28.20;99.90;;;;;;6184520;23;20470;-85
2022/04/13 11:15:43;;;;;;;587.80;543.13;;;28.00;99.90;;;;;;6183755;23;20017;-83
2022/04/13 11:18:20;;;;;;;499.67;413.77;;;27.50;99.90;;;;;;6183628;23;20447;-82
2022/04/13 11:21:05;;;;;;;561.10;514.35;;;26.70;99.90;;;;;;6183132;23;20021;-83
2022/04/13 11:23:53;;;;;;;342.00;309.48;;;26.00;99.90;;;;;;6157330;23;20017;-83
2022/04/13 11:26:51;;;;;;;127.40;118.40;;;25.10;99.90;;;;;;6184528;23;20499;-83
2022/04/13 11:29:23;;;;;;;128.10;118.15;;;25.40;99.90;;;;;;6183559;23;20028;-82
2022/04/13 11:32:01;;;;;;;301.17;269.80;;;25.50;99.90;;;;;;6183617;23;20021;-83
2022/04/13 11:34:35;;;;;;;141.35;130.88;;;25.30;99.90;;;;;;6183138;23;20075;-84
2022/04/13 11:37:03;;;;;;;145.40;133.43;;;25.70;99.90;;;;;;6155674;23;20476;-84
2022/04/13 11:39:52;;;;;;;86.07;79.45;;;24.50;99.90;;;;;;6183433;23;20008;-83
2022/04/13 11:42:20;;;;;;;103.10;95.30;;;24.40;99.90;;;;;;6183949;23;20013;-83
2022/04/13 11:45:10;;;;;;;115.32;105.93;;;23.90;99.90;;;;;;6182689;23;20403;-84
2022/04/13 11:47:46;;;;;;;88.55;79.93;;;23.50;99.90;;;;;;6183312;23;20486;-82
2022/04/13 11:50:15;;;;;;;45.97;41.85;;;22.80;99.90;;;;;;6183598;23;20086;-82
2022/04/13 11:52:44;;;;;;;76.70;69.10;;;22.00;99.90;;;;;;6183538;23;20343;-82
2022/04/13 11:55:36;;;;;;;43.28;39.47;;;22.00;99.90;;;;;;6183817;23;20021;-82
2022/04/13 11:58:07;;;;;;;40.30;36.53;;;21.80;99.90;;;;;;6182319;23;20056;-82
2022/04/13 12:00:52;;;;;;;199.68;184.95;;;21.80;99.90;;;;;;6157498;23;20059;-82
2022/04/13 12:03:40;;;;;;;113.20;105.47;;;21.10;99.90;;;;;;6183413;23;20017;-83
2022/04/13 12:06:10;;;;;;;;;;;21.20;99.90;;;;;;6183256;23;20031;-83
2022/04/13 12:08:41;;;;;;;88.63;81.50;;;21.60;99.90;;;;;;6183650;23;19915;-83
2022/04/13 12:11:16;;;;;;;52.13;47.55;;;21.70;99.90;;;;;;6182925;23;20104;-84
2022/04/13 12:13:51;;;;;;;60.72;56.45;;;21.60;99.90;;;;;;6183563;23;20059;-83
2022/04/13 12:16:21;;;;;;;27.90;24.55;;;21.70;99.90;;;;;;6157138;23;20366;-82
2022/04/13 12:18:48;;;;;;;31.30;28.17;;;21.70;99.90;;;;;;6182448;23;20021;-82
2022/04/13 12:21:21;;;;;;;66.72;61.90;;;21.40;99.90;;;;;;6182676;23;20024;-82
2022/04/13 12:23:48;;;;;;;32.88;30.27;;;21.00;99.90;;;;;;6183200;23;20024;-83
2022/04/13 12:26:15;;;;;;;54.20;50.10;;;20.90;99.90;;;;;;6156582;23;20204;-83
2022/04/13 12:28:40;;;;;;;25.30;22.83;;;20.60;99.90;;;;;;6182925;23;20044;-83
2022/04/13 12:31:13;;;;;;;35.25;32.25;;;20.60;99.90;;;;;;6131639;23;20510;-84
2022/04/13 12:33:40;;;;;;;55.78;50.70;;;20.50;99.90;;;;;;6182399;23;20515;-83